sensor_id;sensor_type;location;lat;lon;timestamp;pressure;altitude;pressure_sealevel;temperature;humidity
16580;BME280;8402;51.466;6.806;2023-06-14T00:00:50;101074.69;;;22.33;39.58
16580;BME280;8402;51.466;6.806;2023-06-14T00:03:21;101069.50;;;22.28;39.09
16580;BME280;8402;51.466;6.806;2023-06-14T00:05:52;101072.66;;;22.22;39.13
16580;BME280;8402;51.466;6.806;2023-06-14T00:08:22;101071.81;;;22.15;39.44
16580;BME280;8402;51.466;6.806;2023-06-14T00:10:52;101075.72;;;22.10;39.54
16580;BME280;8402;51.466;6.806;2023-06-14T00:13:22;101078.00;;;22.01;39.77
16580;BME280;8402;51.466;6.806;2023-06-14T00:15:55;101074.00;;;21.95;39.61
16580;BME280;8402;51.466;6.806;2023-06-14T00:18:25;101083.03;;;21.92;40.00
16580;BME280;8402;51.466;6.806;2023-06-14T00:20:57;101077.91;;;21.90;39.79
16580;BME280;8402;51.466;6.806;2023-06-14T00:23:29;101081.81;;;21.86;39.68
16580;BME280;8402;51.466;6.806;2023-06-14T00:25:59;101073.50;;;21.82;39.78
16580;BME280;8402;51.466;6.806;2023-06-14T00:28:29;101095.16;;;21.77;40.07
16580;BME280;8402;51.466;6.806;2023-06-14T00:31:01;101093.91;;;21.70;40.36
16580;BME280;8402;51.466;6.806;2023-06-14T00:33:31;101090.34;;;21.66;40.26
16580;BME280;8402;51.466;6.806;2023-06-14T00:36:01;101100.94;;;21.64;40.47
16580;BME280;8402;51.466;6.806;2023-06-14T00:38:31;101095.81;;;21.63;40.63
16580;BME280;8402;51.466;6.806;2023-06-14T00:41:02;101101.38;;;21.66;40.99
16580;BME280;8402;51.466;6.806;2023-06-14T00:43:32;101099.00;;;21.65;40.81
16580;BME280;8402;51.466;6.806;2023-06-14T00:46:04;101101.38;;;21.66;40.62
16580;BME280;8402;51.466;6.806;2023-06-14T00:48:35;101103.00;;;21.71;40.77
16580;BME280;8402;51.466;6.806;2023-06-14T00:51:06;101104.56;;;21.68;40.77
16580;BME280;8402;51.466;6.806;2023-06-14T00:53:36;101108.09;;;21.65;40.48
16580;BME280;8402;51.466;6.806;2023-06-14T00:56:07;101106.91;;;21.66;40.53
16580;BME280;8402;51.466;6.806;2023-06-14T00:58:40;101108.50;;;21.71;40.27
16580;BME280;8402;51.466;6.806;2023-06-14T01:01:13;101109.28;;;21.68;40.59
16580;BME280;8402;51.466;6.806;2023-06-14T01:03:43;101114.00;;;21.67;40.72
16580;BME280;8402;51.466;6.806;2023-06-14T01:06:20;101113.63;;;21.69;41.10
16580;BME280;8402;51.466;6.806;2023-06-14T01:09:03;101110.47;;;21.70;41.47
16580;BME280;8402;51.466;6.806;2023-06-14T01:11:43;101114.41;;;21.69;40.92
16580;BME280;8402;51.466;6.806;2023-06-14T01:14:18;101114.03;;;21.71;40.16
16580;BME280;8402;51.466;6.806;2023-06-14T01:16:51;101111.66;;;21.69;40.25
16580;BME280;8402;51.466;6.806;2023-06-14T01:19:22;101107.28;;;21.65;40.62
16580;BME280;8402;51.466;6.806;2023-06-14T01:21:53;101110.00;;;21.58;40.29
16580;BME280;8402;51.466;6.806;2023-06-14T01:24:25;101102.75;;;21.46;41.18
16580;BME280;8402;51.466;6.806;2023-06-14T01:26:59;101109.81;;;21.40;40.76
16580;BME280;8402;51.466;6.806;2023-06-14T01:29:30;101107.03;;;21.36;40.63
16580;BME280;8402;51.466;6.806;2023-06-14T01:32:04;101107.38;;;21.35;41.18
16580;BME280;8402;51.466;6.806;2023-06-14T01:34:34;101101.03;;;21.31;41.34
16580;BME280;8402;51.466;6.806;2023-06-14T01:37:04;101108.03;;;21.25;40.92
16580;BME280;8402;51.466;6.806;2023-06-14T01:39:37;101111.13;;;21.20;41.64
16580;BME280;8402;51.466;6.806;2023-06-14T01:42:07;101104.00;;;21.15;41.38
16580;BME280;8402;51.466;6.806;2023-06-14T01:44:38;101110.25;;;21.12;41.39
16580;BME280;8402;51.466;6.806;2023-06-14T01:47:09;101114.97;;;21.11;41.45
16580;BME280;8402;51.466;6.806;2023-06-14T01:49:39;101116.88;;;21.07;41.38
16580;BME280;8402;51.466;6.806;2023-06-14T01:52:09;101113.31;;;21.03;41.26
16580;BME280;8402;51.466;6.806;2023-06-14T01:54:43;101118.81;;;21.03;41.38
16580;BME280;8402;51.466;6.806;2023-06-14T01:57:14;101119.56;;;21.00;40.91
16580;BME280;8402;51.466;6.806;2023-06-14T01:59:45;101117.94;;;20.96;41.22
16580;BME280;8402;51.466;6.806;2023-06-14T02:02:16;101116.31;;;20.91;41.45
16580;BME280;8402;51.466;6.806;2023-06-14T02:04:46;101112.34;;;20.88;41.62
16580;BME280;8402;51.466;6.806;2023-06-14T02:07:17;101124.88;;;20.82;41.52
16580;BME280;8402;51.466;6.806;2023-06-14T02:09:49;101119.31;;;20.79;41.99
16580;BME280;8402;51.466;6.806;2023-06-14T02:12:19;101118.47;;;20.75;41.80
16580;BME280;8402;51.466;6.806;2023-06-14T02:14:49;101121.97;;;20.72;41.86
16580;BME280;8402;51.466;6.806;2023-06-14T02:17:19;101120.03;;;20.72;42.07
16580;BME280;8402;51.466;6.806;2023-06-14T02:19:50;101115.66;;;20.71;42.11
16580;BME280;8402;51.466;6.806;2023-06-14T02:22:20;101122.41;;;20.74;42.00
16580;BME280;8402;51.466;6.806;2023-06-14T02:24:52;101117.69;;;20.74;41.80
16580;BME280;8402;51.466;6.806;2023-06-14T02:27:28;101119.22;;;20.72;41.68
16580;BME280;8402;51.466;6.806;2023-06-14T02:29:58;101130.25;;;20.72;41.71
16580;BME280;8402;51.466;6.806;2023-06-14T02:32:28;101119.22;;;20.72;42.11
16580;BME280;8402;51.466;6.806;2023-06-14T02:34:58;101123.13;;;20.71;42.25
16580;BME280;8402;51.466;6.806;2023-06-14T02:37:29;101123.13;;;20.71;42.03
16580;BME280;8402;51.466;6.806;2023-06-14T02:40:02;101127.50;;;20.72;42.64
16580;BME280;8402;51.466;6.806;2023-06-14T02:42:35;101128.63;;;20.71;42.43
16580;BME280;8402;51.466;6.806;2023-06-14T02:45:06;101131.41;;;20.71;42.27
16580;BME280;8402;51.466;6.806;2023-06-14T02:47:36;101130.19;;;20.68;41.97
16580;BME280;8402;51.466;6.806;2023-06-14T02:50:08;101142.78;;;20.66;42.23
16580;BME280;8402;51.466;6.806;2023-06-14T02:52:38;101135.69;;;20.65;41.85
16580;BME280;8402;51.466;6.806;2023-06-14T02:55:11;101140.34;;;20.60;42.35
16580;BME280;8402;51.466;6.806;2023-06-14T02:57:41;101143.41;;;20.55;42.43
16580;BME280;8402;51.466;6.806;2023-06-14T03:00:12;101143.28;;;20.48;41.94
16580;BME280;8402;51.466;6.806;2023-06-14T03:02:43;101149.44;;;20.38;42.17
16580;BME280;8402;51.466;6.806;2023-06-14T03:05:13;101144.19;;;20.29;42.32
16580;BME280;8402;51.466;6.806;2023-06-14T03:07:48;101150.38;;;20.23;42.49
16580;BME280;8402;51.466;6.806;2023-06-14T03:10:21;101147.91;;;20.18;42.74
16580;BME280;8402;51.466;6.806;2023-06-14T03:12:56;101153.31;;;20.11;42.88
16580;BME280;8402;51.466;6.806;2023-06-14T03:15:28;101152.91;;;20.09;42.66
16580;BME280;8402;51.466;6.806;2023-06-14T03:18:00;101155.22;;;20.06;42.83
16580;BME280;8402;51.466;6.806;2023-06-14T03:20:31;101157.13;;;20.02;42.79
16580;BME280;8402;51.466;6.806;2023-06-14T03:23:01;101161.34;;;19.96;42.64
16580;BME280;8402;51.466;6.806;2023-06-14T03:25:35;101170.69;;;19.92;43.10
16580;BME280;8402;51.466;6.806;2023-06-14T03:28:05;101166.31;;;19.87;43.29
16580;BME280;8402;51.466;6.806;2023-06-14T03:30:35;101172.97;;;19.86;43.11
16580;BME280;8402;51.466;6.806;2023-06-14T03:33:05;101175.28;;;19.84;43.20
16580;BME280;8402;51.466;6.806;2023-06-14T03:35:35;101172.13;;;19.82;43.29
16580;BME280;8402;51.466;6.806;2023-06-14T03:38:06;101168.94;;;19.80;43.51
16580;BME280;8402;51.466;6.806;2023-06-14T03:40:39;101175.16;;;19.77;43.56
16580;BME280;8402;51.466;6.806;2023-06-14T03:43:09;101184.16;;;19.74;43.25
16580;BME280;8402;51.466;6.806;2023-06-14T03:45:39;101185.31;;;19.73;43.80
16580;BME280;8402;51.466;6.806;2023-06-14T03:48:10;101183.28;;;19.70;43.31
16580;BME280;8402;51.466;6.806;2023-06-14T03:50:40;101191.88;;;19.65;43.77
16580;BME280;8402;51.466;6.806;2023-06-14T03:53:11;101192.56;;;19.62;43.58
16580;BME280;8402;51.466;6.806;2023-06-14T03:55:45;101193.75;;;19.61;43.89
16580;BME280;8402;51.466;6.806;2023-06-14T03:58:18;101195.28;;;19.58;44.20
16580;BME280;8402;51.466;6.806;2023-06-14T04:00:48;101201.84;;;19.53;44.54
16580;BME280;8402;51.466;6.806;2023-06-14T04:03:18;101210.81;;;19.50;44.46
16580;BME280;8402;51.466;6.806;2023-06-14T04:05:57;101203.28;;;19.47;43.95
16580;BME280;8402;51.466;6.806;2023-06-14T04:08:29;101208.34;;;19.45;44.28
16580;BME280;8402;51.466;6.806;2023-06-14T04:11:02;101212.13;;;19.37;45.09
16580;BME280;8402;51.466;6.806;2023-06-14T04:13:32;101212.47;;;19.36;44.76
16580;BME280;8402;51.466;6.806;2023-06-14T04:16:05;101224.72;;;19.38;45.04
16580;BME280;8402;51.466;6.806;2023-06-14T04:18:35;101219.66;;;19.40;44.72
16580;BME280;8402;51.466;6.806;2023-06-14T04:21:05;101223.28;;;19.44;44.77
16580;BME280;8402;51.466;6.806;2023-06-14T04:23:35;101226.09;;;19.48;44.59
16580;BME280;8402;51.466;6.806;2023-06-14T04:26:08;101224.88;;;19.45;45.45
16580;BME280;8402;51.466;6.806;2023-06-14T04:28:38;101220.94;;;19.46;44.66
16580;BME280;8402;51.466;6.806;2023-06-14T04:31:08;101215.88;;;19.48;44.69
16580;BME280;8402;51.466;6.806;2023-06-14T04:33:38;101221.09;;;19.53;44.43
16580;BME280;8402;51.466;6.806;2023-06-14T04:36:11;101228.31;;;19.58;44.62
16580;BME280;8402;51.466;6.806;2023-06-14T04:38:44;101222.06;;;19.61;44.35
16580;BME280;8402;51.466;6.806;2023-06-14T04:41:18;101235.03;;;19.61;44.70
16580;BME280;8402;51.466;6.806;2023-06-14T04:43:49;101228.38;;;19.62;44.32
16580;BME280;8402;51.466;6.806;2023-06-14T04:46:20;101239.47;;;19.65;44.35
16580;BME280;8402;51.466;6.806;2023-06-14T04:48:50;101230.09;;;19.70;44.20
16580;BME280;8402;51.466;6.806;2023-06-14T04:51:21;101240.38;;;19.73;44.26
16580;BME280;8402;51.466;6.806;2023-06-14T04:53:56;101241.97;;;19.74;44.21
16580;BME280;8402;51.466;6.806;2023-06-14T04:56:30;101242.69;;;19.71;44.55
16580;BME280;8402;51.466;6.806;2023-06-14T04:59:01;101245.03;;;19.69;44.25
16580;BME280;8402;51.466;6.806;2023-06-14T05:01:32;101246.47;;;19.63;44.89
16580;BME280;8402;51.466;6.806;2023-06-14T05:04:03;101251.78;;;19.56;44.99
16580;BME280;8402;51.466;6.806;2023-06-14T05:06:33;101246.25;;;19.52;44.94
16580;BME280;8402;51.466;6.806;2023-06-14T05:09:03;101254.88;;;19.50;44.79
16580;BME280;8402;51.466;6.806;2023-06-14T05:11:36;101258.03;;;19.52;44.99
16580;BME280;8402;51.466;6.806;2023-06-14T05:14:06;101252.13;;;19.50;45.00
16580;BME280;8402;51.466;6.806;2023-06-14T05:16:36;101254.88;;;19.50;44.88
16580;BME280;8402;51.466;6.806;2023-06-14T05:19:07;101264.34;;;19.53;44.85
16580;BME280;8402;51.466;6.806;2023-06-14T05:21:37;101261.22;;;19.55;44.83
16580;BME280;8402;51.466;6.806;2023-06-14T05:24:09;101262.81;;;19.56;44.99
16580;BME280;8402;51.466;6.806;2023-06-14T05:26:42;101261.22;;;19.55;45.35
16580;BME280;8402;51.466;6.806;2023-06-14T05:29:13;101266.31;;;19.52;45.18
16580;BME280;8402;51.466;6.806;2023-06-14T05:31:43;101263.19;;;19.54;45.21
16580;BME280;8402;51.466;6.806;2023-06-14T05:34:13;101265.13;;;19.53;45.62
16580;BME280;8402;51.466;6.806;2023-06-14T05:36:43;101262.81;;;19.56;45.38
16580;BME280;8402;51.466;6.806;2023-06-14T05:39:15;101255.03;;;19.58;45.67
16580;BME280;8402;51.466;6.806;2023-06-14T05:41:48;101268.81;;;19.58;46.02
16580;BME280;8402;51.466;6.806;2023-06-14T05:44:18;101262.13;;;19.59;45.63
16580;BME280;8402;51.466;6.806;2023-06-14T05:46:48;101258.22;;;19.60;45.85
16580;BME280;8402;51.466;6.806;2023-06-14T05:49:18;101268.84;;;19.61;46.68
16580;BME280;8402;51.466;6.806;2023-06-14T05:51:48;101272.78;;;19.60;46.23
16580;BME280;8402;51.466;6.806;2023-06-14T05:54:18;101279.50;;;19.63;46.19
16580;BME280;8402;51.466;6.806;2023-06-14T05:56:50;101285.88;;;19.67;46.26
16580;BME280;8402;51.466;6.806;2023-06-14T05:59:21;101284.34;;;19.69;45.41
16580;BME280;8402;51.466;6.806;2023-06-14T06:01:51;101280.53;;;19.74;45.64
16580;BME280;8402;51.466;6.806;2023-06-14T06:04:21;101282.13;;;19.75;46.24
16580;BME280;8402;51.466;6.806;2023-06-14T06:06:51;101283.69;;;19.76;45.65
16580;BME280;8402;51.466;6.806;2023-06-14T06:09:21;101286.88;;;19.78;45.85
16580;BME280;8402;51.466;6.806;2023-06-14T06:11:54;101286.19;;;19.81;45.84
16580;BME280;8402;51.466;6.806;2023-06-14T06:14:24;101282.31;;;19.86;45.99
16580;BME280;8402;51.466;6.806;2023-06-14T06:16:54;101287.16;;;19.92;45.87
16580;BME280;8402;51.466;6.806;2023-06-14T06:19:24;101291.31;;;20.02;45.93
16580;BME280;8402;51.466;6.806;2023-06-14T06:21:54;101291.06;;;20.11;45.67
16580;BME280;8402;51.466;6.806;2023-06-14T06:24:24;101301.84;;;20.19;45.65
16580;BME280;8402;51.466;6.806;2023-06-14T06:26:57;101291.81;;;20.30;45.64
16580;BME280;8402;51.466;6.806;2023-06-14T06:29:27;101295.53;;;20.42;45.38
16580;BME280;8402;51.466;6.806;2023-06-14T06:31:57;101299.44;;;20.60;45.41
16580;BME280;8402;51.466;6.806;2023-06-14T06:34:27;101294.31;;;20.85;44.65
16580;BME280;8402;51.466;6.806;2023-06-14T06:36:57;101294.75;;;21.13;44.04
16580;BME280;8402;51.466;6.806;2023-06-14T06:39:28;101305.03;;;21.43;43.47
16580;BME280;8402;51.466;6.806;2023-06-14T06:42:00;101305.44;;;21.75;42.77
16580;BME280;8402;51.466;6.806;2023-06-14T06:44:30;101311.00;;;22.09;42.63
16580;BME280;8402;51.466;6.806;2023-06-14T06:47:00;101308.94;;;22.43;42.25
16580;BME280;8402;51.466;6.806;2023-06-14T06:49:30;101310.75;;;22.69;41.89
16580;BME280;8402;51.466;6.806;2023-06-14T06:52:01;101314.94;;;22.93;40.83
16580;BME280;8402;51.466;6.806;2023-06-14T06:54:32;101321.06;;;23.23;40.52
16580;BME280;8402;51.466;6.806;2023-06-14T06:57:05;101318.47;;;23.52;39.70
16580;BME280;8402;51.466;6.806;2023-06-14T06:59:35;101316.22;;;23.75;38.74
16580;BME280;8402;51.466;6.806;2023-06-14T07:02:06;101319.38;;;23.77;38.90
16580;BME280;8402;51.466;6.806;2023-06-14T07:04:36;101323.38;;;23.91;38.83
16580;BME280;8402;51.466;6.806;2023-06-14T07:07:06;101321.84;;;24.04;38.99
16580;BME280;8402;51.466;6.806;2023-06-14T07:09:36;101327.44;;;24.29;38.56
16580;BME280;8402;51.466;6.806;2023-06-14T07:12:10;101324.34;;;24.55;38.06
16580;BME280;8402;51.466;6.806;2023-06-14T07:14:41;101319.59;;;24.81;38.44
16580;BME280;8402;51.466;6.806;2023-06-14T07:17:10;101319.56;;;24.98;36.95
16580;BME280;8402;51.466;6.806;2023-06-14T07:19:41;101322.34;;;25.13;37.14
16580;BME280;8402;51.466;6.806;2023-06-14T07:22:11;101326.69;;;25.32;37.26
16580;BME280;8402;51.466;6.806;2023-06-14T07:24:41;101324.25;;;25.48;36.40
16580;BME280;8402;51.466;6.806;2023-06-14T07:27:14;101323.78;;;25.64;35.74
16580;BME280;8402;51.466;6.806;2023-06-14T07:29:44;101323.69;;;25.92;36.18
16580;BME280;8402;51.466;6.806;2023-06-14T07:32:15;101319.19;;;26.13;35.60
16580;BME280;8402;51.466;6.806;2023-06-14T07:34:45;101313.50;;;26.34;35.60
16580;BME280;8402;51.466;6.806;2023-06-14T07:37:15;101314.56;;;26.58;35.94
16580;BME280;8402;51.466;6.806;2023-06-14T07:39:45;101320.75;;;26.76;34.50
16580;BME280;8402;51.466;6.806;2023-06-14T07:42:18;101316.22;;;26.93;34.63
16580;BME280;8402;51.466;6.806;2023-06-14T07:44:48;101317.31;;;27.06;33.57
16580;BME280;8402;51.466;6.806;2023-06-14T07:47:19;101311.25;;;27.15;33.66
16580;BME280;8402;51.466;6.806;2023-06-14T07:49:49;101314.69;;;27.30;33.99
16580;BME280;8402;51.466;6.806;2023-06-14T07:52:19;101310.72;;;27.61;33.60
16580;BME280;8402;51.466;6.806;2023-06-14T07:54:49;101313.53;;;27.92;33.58
16580;BME280;8402;51.466;6.806;2023-06-14T07:57:22;101316.59;;;28.01;32.11
16580;BME280;8402;51.466;6.806;2023-06-14T07:59:52;101320.31;;;27.91;31.38
16580;BME280;8402;51.466;6.806;2023-06-14T08:02:22;101320.59;;;27.69;31.98
16580;BME280;8402;51.466;6.806;2023-06-14T08:04:53;101331.94;;;27.86;32.02
16580;BME280;8402;51.466;6.806;2023-06-14T08:07:24;101321.13;;;28.18;32.19
16580;BME280;8402;51.466;6.806;2023-06-14T08:09:54;101322.28;;;28.48;32.16
16580;BME280;8402;51.466;6.806;2023-06-14T08:12:29;101331.72;;;28.58;31.36
16580;BME280;8402;51.466;6.806;2023-06-14T08:15:00;101331.06;;;28.73;31.85
16580;BME280;8402;51.466;6.806;2023-06-14T08:17:42;101329.66;;;28.85;30.62
16580;BME280;8402;51.466;6.806;2023-06-14T08:20:12;101336.75;;;28.90;31.40
16580;BME280;8402;51.466;6.806;2023-06-14T08:22:44;101337.22;;;28.85;30.89
16580;BME280;8402;51.466;6.806;2023-06-14T08:25:16;101340.88;;;28.82;31.11
16580;BME280;8402;51.466;6.806;2023-06-14T08:27:49;101337.88;;;28.72;30.20
16580;BME280;8402;51.466;6.806;2023-06-14T08:30:19;101333.84;;;28.73;30.20
16580;BME280;8402;51.466;6.806;2023-06-14T08:32:49;101333.22;;;28.86;30.82
16580;BME280;8402;51.466;6.806;2023-06-14T08:35:27;101338.84;;;29.09;30.45
16580;BME280;8402;51.466;6.806;2023-06-14T08:37:56;101335.69;;;29.27;30.41
16580;BME280;8402;51.466;6.806;2023-06-14T08:40:27;101333.41;;;29.42;30.14
16580;BME280;8402;51.466;6.806;2023-06-14T08:43:02;101331.59;;;29.55;30.32
16580;BME280;8402;51.466;6.806;2023-06-14T08:45:32;101333.16;;;29.56;30.50
16580;BME280;8402;51.466;6.806;2023-06-14T08:48:02;101325.50;;;29.60;30.61
16580;BME280;8402;51.466;6.806;2023-06-14T08:50:36;101325.53;;;29.76;30.07
16580;BME280;8402;51.466;6.806;2023-06-14T08:53:08;101324.38;;;29.94;29.67
16580;BME280;8402;51.466;6.806;2023-06-14T08:55:40;101328.91;;;30.24;29.64
16580;BME280;8402;51.466;6.806;2023-06-14T08:58:17;101324.38;;;30.30;28.49
16580;BME280;8402;51.466;6.806;2023-06-14T09:00:47;101317.78;;;30.20;28.68
16580;BME280;8402;51.466;6.806;2023-06-14T09:03:19;101331.63;;;30.27;29.24
16580;BME280;8402;51.466;6.806;2023-06-14T09:05:50;101323.59;;;30.29;29.18
16580;BME280;8402;51.466;6.806;2023-06-14T09:08:21;101320.25;;;30.34;28.69
16580;BME280;8402;51.466;6.806;2023-06-14T09:10:52;101333.56;;;30.47;28.48
16580;BME280;8402;51.466;6.806;2023-06-14T09:13:26;101335.84;;;30.52;29.00
16580;BME280;8402;51.466;6.806;2023-06-14T09:15:57;101338.03;;;30.60;28.53
16580;BME280;8402;51.466;6.806;2023-06-14T09:18:34;101320.88;;;30.58;28.29
16580;BME280;8402;51.466;6.806;2023-06-14T09:21:06;101329.75;;;30.73;27.85
16580;BME280;8402;51.466;6.806;2023-06-14T09:23:38;101329.38;;;30.87;28.01
16580;BME280;8402;51.466;6.806;2023-06-14T09:26:09;101345.63;;;30.92;28.03
16580;BME280;8402;51.466;6.806;2023-06-14T09:28:44;101338.28;;;30.99;27.21
16580;BME280;8402;51.466;6.806;2023-06-14T09:31:16;101346.31;;;31.13;27.32
16580;BME280;8402;51.466;6.806;2023-06-14T09:33:48;101335.88;;;31.30;27.58
16580;BME280;8402;51.466;6.806;2023-06-14T09:36:22;101338.56;;;31.33;26.36
16580;BME280;8402;51.466;6.806;2023-06-14T09:38:53;101336.81;;;31.39;25.95
16580;BME280;8402;51.466;6.806;2023-06-14T09:41:31;101359.13;;;31.43;26.10
16580;BME280;8402;51.466;6.806;2023-06-14T09:44:09;101351.06;;;31.45;25.58
16580;BME280;8402;51.466;6.806;2023-06-14T09:46:48;101335.22;;;31.38;25.58
16580;BME280;8402;51.466;6.806;2023-06-14T09:49:18;101334.91;;;31.49;26.27
16580;BME280;8402;51.466;6.806;2023-06-14T09:51:50;101337.75;;;31.62;26.25
16580;BME280;8402;51.466;6.806;2023-06-14T09:54:23;101342.56;;;31.90;26.58
16580;BME280;8402;51.466;6.806;2023-06-14T09:56:55;101344.25;;;32.13;26.09
16580;BME280;8402;51.466;6.806;2023-06-14T09:59:31;101334.03;;;32.07;25.26
16580;BME280;8402;51.466;6.806;2023-06-14T10:02:07;101342.03;;;32.08;25.06
16580;BME280;8402;51.466;6.806;2023-06-14T10:04:46;101341.78;;;32.02;24.61
16580;BME280;8402;51.466;6.806;2023-06-14T10:07:19;101340.88;;;31.80;24.64
16580;BME280;8402;51.466;6.806;2023-06-14T10:09:51;101342.16;;;31.75;24.65
16580;BME280;8402;51.466;6.806;2023-06-14T10:12:22;101336.94;;;31.90;25.17
16580;BME280;8402;51.466;6.806;2023-06-14T10:14:55;101337.84;;;32.00;25.00
16580;BME280;8402;51.466;6.806;2023-06-14T10:17:33;101345.94;;;32.11;24.65
16580;BME280;8402;51.466;6.806;2023-06-14T10:20:23;101345.16;;;32.10;25.38
16580;BME280;8402;51.466;6.806;2023-06-14T10:23:00;101342.69;;;32.12;24.65
16580;BME280;8402;51.466;6.806;2023-06-14T10:25:32;101334.59;;;32.14;25.21
16580;BME280;8402;51.466;6.806;2023-06-14T10:28:05;101327.31;;;32.17;25.36
16580;BME280;8402;51.466;6.806;2023-06-14T10:31:04;101340.44;;;31.94;24.73
16580;BME280;8402;51.466;6.806;2023-06-14T10:33:35;101339.41;;;32.14;25.01
16580;BME280;8402;51.466;6.806;2023-06-14T10:36:23;101330.22;;;32.26;24.62
16580;BME280;8402;51.466;6.806;2023-06-14T10:39:04;101334.72;;;32.36;24.76
16580;BME280;8402;51.466;6.806;2023-06-14T10:41:37;101326.66;;;32.38;24.78
16580;BME280;8402;51.466;6.806;2023-06-14T10:44:31;101320.13;;;32.41;24.37
16580;BME280;8402;51.466;6.806;2023-06-14T10:47:07;101325.59;;;32.57;23.37
16580;BME280;8402;51.466;6.806;2023-06-14T10:49:40;101337.28;;;32.69;23.61
16580;BME280;8402;51.466;6.806;2023-06-14T10:52:12;101335.47;;;32.88;23.52
16580;BME280;8402;51.466;6.806;2023-06-14T10:54:58;101330.06;;;32.80;23.32
16580;BME280;8402;51.466;6.806;2023-06-14T10:57:28;101338.13;;;32.91;23.73
16580;BME280;8402;51.466;6.806;2023-06-14T11:00:15;101330.78;;;33.06;24.08
16580;BME280;8402;51.466;6.806;2023-06-14T11:05:53;101338.34;;;32.84;22.70
16580;BME280;8402;51.466;6.806;2023-06-14T11:08:35;101335.25;;;33.17;23.31
16580;BME280;8402;51.466;6.806;2023-06-14T11:11:09;101335.72;;;33.37;23.76
16580;BME280;8402;51.466;6.806;2023-06-14T11:13:43;101332.56;;;33.57;23.24
16580;BME280;8402;51.466;6.806;2023-06-14T11:16:15;101327.88;;;33.85;23.12
16580;BME280;8402;51.466;6.806;2023-06-14T11:18:46;101327.97;;;33.94;23.22
16580;BME280;8402;51.466;6.806;2023-06-14T11:21:19;101327.50;;;33.96;22.16
16580;BME280;8402;51.466;6.806;2023-06-14T11:23:52;101323.66;;;34.11;23.66
16580;BME280;8402;51.466;6.806;2023-06-14T11:26:26;101325.78;;;33.98;22.08
16580;BME280;8402;51.466;6.806;2023-06-14T11:28:59;101335.81;;;33.99;22.77
16580;BME280;8402;51.466;6.806;2023-06-14T11:31:29;101324.09;;;33.79;23.17
16580;BME280;8402;51.466;6.806;2023-06-14T11:34:00;101331.88;;;33.65;22.68
16580;BME280;8402;51.466;6.806;2023-06-14T11:36:34;101337.84;;;33.33;23.19
16580;BME280;8402;51.466;6.806;2023-06-14T11:39:05;101337.19;;;33.29;23.57
16580;BME280;8402;51.466;6.806;2023-06-14T11:41:40;101330.53;;;33.35;22.93
16580;BME280;8402;51.466;6.806;2023-06-14T11:44:10;101320.25;;;33.63;23.71
16580;BME280;8402;51.466;6.806;2023-06-14T11:46:41;101323.06;;;33.63;23.22
16580;BME280;8402;51.466;6.806;2023-06-14T11:49:11;101331.31;;;33.80;23.61
16580;BME280;8402;51.466;6.806;2023-06-14T11:51:44;101336.81;;;33.83;23.11
16580;BME280;8402;51.466;6.806;2023-06-14T11:54:14;101339.69;;;33.92;23.04
16580;BME280;8402;51.466;6.806;2023-06-14T11:56:44;101334.56;;;34.00;23.64
16580;BME280;8402;51.466;6.806;2023-06-14T11:59:14;101327.75;;;33.88;23.28
16580;BME280;8402;51.466;6.806;2023-06-14T12:01:44;101328.81;;;33.82;22.64
16580;BME280;8402;51.466;6.806;2023-06-14T12:04:23;101335.34;;;33.79;23.07
16580;BME280;8402;51.466;6.806;2023-06-14T12:06:56;101333.63;;;33.94;22.58
16580;BME280;8402;51.466;6.806;2023-06-14T12:09:26;101325.16;;;33.94;23.70
16580;BME280;8402;51.466;6.806;2023-06-14T12:12:00;101320.81;;;34.02;22.34
16580;BME280;8402;51.466;6.806;2023-06-14T12:14:31;101336.16;;;34.01;22.85
16580;BME280;8402;51.466;6.806;2023-06-14T12:17:04;101318.44;;;34.01;22.56
16580;BME280;8402;51.466;6.806;2023-06-14T12:19:41;101322.09;;;34.10;22.73
16580;BME280;8402;51.466;6.806;2023-06-14T12:22:15;101325.00;;;33.98;22.88
16580;BME280;8402;51.466;6.806;2023-06-14T12:24:46;101320.16;;;33.98;22.91
16580;BME280;8402;51.466;6.806;2023-06-14T12:27:16;101312.31;;;33.93;22.89
16580;BME280;8402;51.466;6.806;2023-06-14T12:29:58;101319.88;;;34.05;23.53
16580;BME280;8402;51.466;6.806;2023-06-14T12:32:30;101320.25;;;34.16;23.30
16580;BME280;8402;51.466;6.806;2023-06-14T12:35:01;101316.81;;;34.21;23.78
16580;BME280;8402;51.466;6.806;2023-06-14T12:37:35;101325.31;;;34.31;23.90
16580;BME280;8402;51.466;6.806;2023-06-14T12:40:06;101314.75;;;34.53;22.81
16580;BME280;8402;51.466;6.806;2023-06-14T12:42:38;101316.00;;;34.61;23.17
16580;BME280;8402;51.466;6.806;2023-06-14T12:45:09;101307.25;;;34.78;23.60
16580;BME280;8402;51.466;6.806;2023-06-14T12:47:40;101326.81;;;34.72;22.90
16580;BME280;8402;51.466;6.806;2023-06-14T12:50:13;101326.00;;;34.53;22.49
16580;BME280;8402;51.466;6.806;2023-06-14T12:52:47;101321.28;;;34.50;22.61
16580;BME280;8402;51.466;6.806;2023-06-14T12:55:17;101316.94;;;34.58;22.92
16580;BME280;8402;51.466;6.806;2023-06-14T12:57:47;101309.13;;;34.71;23.12
16580;BME280;8402;51.466;6.806;2023-06-14T13:00:19;101310.38;;;34.70;23.14
16580;BME280;8402;51.466;6.806;2023-06-14T13:02:49;101323.03;;;34.57;23.23
16580;BME280;8402;51.466;6.806;2023-06-14T13:05:20;101303.81;;;34.73;23.23
16580;BME280;8402;51.466;6.806;2023-06-14T13:07:52;101329.13;;;34.55;23.22
16580;BME280;8402;51.466;6.806;2023-06-14T13:10:26;101319.88;;;34.45;23.27
16580;BME280;8402;51.466;6.806;2023-06-14T13:12:56;101326.63;;;34.57;23.29
16580;BME280;8402;51.466;6.806;2023-06-14T13:15:27;101313.84;;;34.74;23.50
16580;BME280;8402;51.466;6.806;2023-06-14T13:17:57;101314.75;;;34.71;23.22
16580;BME280;8402;51.466;6.806;2023-06-14T13:20:27;101311.00;;;34.84;23.55
16580;BME280;8402;51.466;6.806;2023-06-14T13:23:00;101311.50;;;34.91;22.97
16580;BME280;8402;51.466;6.806;2023-06-14T13:25:32;101313.53;;;35.00;23.21
16580;BME280;8402;51.466;6.806;2023-06-14T13:28:04;101315.56;;;34.90;22.82